Ana Sayfa
METAR-TAF:

METAR-TAF

Havaalanları :

Williams Field, Antarktika

Enlem: 77-52S, Boylam: 166-58E, yükseklik: 8 m

Güncel hava durumu gözlemi

Rapor saat 08:55 UTC de 35 dakika önce yapıldı.
Rüzgar güneydan 10 kt
Sıcaklık -6°C
Nem 79%
Basınç 993 hPa
Görüş mesafesi 10 km veya daha fazla
8000 ft yükseklikte parçalı çok bulutlu
12000 ft yükseklikte çok bulutlu

METAR: NZCM 290855Z 17010KT 9999 BKN080 OVC120 M06/M09 A2933 RMK AO2A SLP937 T10571089

Saat: 09:30 (09:30 UTC)


TAF: eksik

4.000'den fazla havaalanı için hava durumu gözlemleri ve tahminleri (METAR ve TAF raporları).

Kullanılabilir istasyonlar harita üzerinde sarı ve kırmızı noktalarla gösterilir.

İstasyonun adını görmek için fareyi noktanın üzerinde gezdirin.

Sonrasında hava gözlem ve tahminlerini görmek için tıklayın.

Haritayı değiştirmek için: yaklaştırmak için siyah artı işaretli yeşil düğmeye ve uzaklaştırmak için de eksi işaretli düğmeye hızla tıklayın; bitişik haritalar için yeşil okları kullanın.


METAR-TAF: